createdAt,value
2024-01-10T00:01:21.870Z,9.43
2024-01-10T00:03:49.185Z,8.90
2024-01-10T00:06:16.443Z,13.52
2024-01-10T00:08:43.709Z,13.43
2024-01-10T00:11:11.074Z,11.82
2024-01-10T00:13:38.769Z,11.00
2024-01-10T00:16:06.517Z,10.05
2024-01-10T00:18:34.314Z,9.85
2024-01-10T00:21:01.747Z,11.43
2024-01-10T00:23:29.048Z,11.77
2024-01-10T00:25:56.349Z,11.80
2024-01-10T00:28:23.648Z,9.65
2024-01-10T00:30:51.283Z,14.18
2024-01-10T00:33:18.998Z,17.60
2024-01-10T00:35:46.259Z,11.70
2024-01-10T00:38:14.821Z,11.27
2024-01-10T00:40:42.399Z,12.30
2024-01-10T00:43:09.827Z,6.50
2024-01-10T00:45:37.036Z,9.68
2024-01-10T00:48:04.720Z,11.05
2024-01-10T00:50:32.064Z,12.45
2024-01-10T00:52:59.335Z,8.30
2024-01-10T00:55:26.635Z,9.98
2024-01-10T00:57:54.133Z,13.93
2024-01-10T01:00:21.588Z,15.90
2024-01-10T01:02:48.843Z,10.77
2024-01-10T01:05:16.205Z,9.30
2024-01-10T01:07:44.218Z,9.07
2024-01-10T01:10:11.627Z,10.95
2024-01-10T01:12:40.347Z,10.90
2024-01-10T01:15:08.718Z,9.50
2024-01-10T01:17:35.952Z,8.13
2024-01-10T01:20:05.812Z,8.50
2024-01-10T01:22:33.345Z,9.07
2024-01-10T01:25:00.585Z,8.27
2024-01-10T01:27:27.788Z,8.52
2024-01-10T01:29:55.044Z,10.10
2024-01-10T01:32:22.354Z,11.40
2024-01-10T01:34:49.719Z,9.88
2024-01-10T01:37:16.982Z,8.77
2024-01-10T01:39:44.207Z,11.95
2024-01-10T01:42:11.619Z,9.80
2024-01-10T01:44:39.198Z,8.60
2024-01-10T01:47:07.444Z,15.63
2024-01-10T01:49:35.096Z,10.77
2024-01-10T01:52:02.917Z,9.82
2024-01-10T01:54:33.835Z,10.00
2024-01-10T01:59:28.457Z,7.55
2024-01-10T02:01:57.422Z,11.77
2024-01-10T02:04:25.112Z,11.82
2024-01-10T02:06:52.816Z,8.63
2024-01-10T02:09:20.153Z,9.02
2024-01-10T02:11:47.371Z,9.10
2024-01-10T02:14:14.826Z,15.15
2024-01-10T02:16:42.175Z,10.60
2024-01-10T02:19:20.349Z,12.43
2024-01-10T02:21:47.941Z,10.07
2024-01-10T02:24:15.327Z,10.65
2024-01-10T02:26:42.995Z,10.30
2024-01-10T02:29:10.721Z,10.25
2024-01-10T02:31:38.119Z,10.75
2024-01-10T02:34:05.571Z,11.43
2024-01-10T02:36:33.063Z,9.85
2024-01-10T02:39:00.346Z,9.70
2024-01-10T02:41:28.552Z,11.20
2024-01-10T02:43:59.770Z,14.98
2024-01-10T02:46:30.236Z,9.27
2024-01-10T02:48:57.582Z,8.63
2024-01-10T02:51:27.976Z,9.07
2024-01-10T02:53:55.239Z,11.38
2024-01-10T02:56:22.570Z,16.58
2024-01-10T02:58:49.844Z,13.60
2024-01-10T03:01:17.151Z,12.70
2024-01-10T03:03:44.546Z,8.73
2024-01-10T03:06:11.953Z,12.05
2024-01-10T03:08:39.248Z,12.30
2024-01-10T03:11:06.554Z,12.07
2024-01-10T03:13:33.812Z,11.18
2024-01-10T03:16:01.111Z,7.72
2024-01-10T03:18:28.383Z,8.65
2024-01-10T03:20:56.881Z,10.35
2024-01-10T03:23:24.178Z,11.32
2024-01-10T03:25:51.544Z,9.80
2024-01-10T03:28:18.923Z,9.50
2024-01-10T03:30:46.449Z,10.40
2024-01-10T03:33:13.804Z,9.32
2024-01-10T03:35:41.070Z,9.50
2024-01-10T03:38:08.841Z,11.77
2024-01-10T03:40:36.267Z,17.02
2024-01-10T03:43:03.748Z,20.95
2024-01-10T03:45:30.985Z,18.45
2024-01-10T03:47:58.268Z,17.63
2024-01-10T03:50:25.596Z,17.88
2024-01-10T03:52:53.269Z,12.98
2024-01-10T03:55:20.624Z,17.83
2024-01-10T03:57:47.952Z,15.82
2024-01-10T04:00:15.308Z,14.65
2024-01-10T04:02:42.750Z,18.70
2024-01-10T04:05:14.655Z,16.98
2024-01-10T04:07:43.561Z,20.63
2024-01-10T04:10:12.031Z,16.10
2024-01-10T04:12:39.233Z,23.08
2024-01-10T04:15:07.251Z,15.02
2024-01-10T04:17:34.668Z,20.50
2024-01-10T04:20:02.410Z,21.05
2024-01-10T04:22:29.866Z,15.07
2024-01-10T04:24:59.090Z,16.35
2024-01-10T04:27:26.841Z,15.95
2024-01-10T04:29:54.641Z,19.80
2024-01-10T04:32:22.012Z,19.55
2024-01-10T04:34:49.321Z,16.70
2024-01-10T04:37:16.851Z,22.92
2024-01-10T04:39:44.160Z,21.98
2024-01-10T04:42:14.404Z,17.05
2024-01-10T04:44:41.680Z,19.55
2024-01-10T04:47:09.077Z,19.40
2024-01-10T04:49:36.629Z,21.20
2024-01-10T04:52:04.085Z,19.90
2024-01-10T04:54:31.369Z,18.35
2024-01-10T04:56:58.608Z,19.63
2024-01-10T04:59:25.867Z,19.27
2024-01-10T05:01:53.383Z,16.70
2024-01-10T05:04:20.623Z,18.52
2024-01-10T05:06:47.895Z,19.10
2024-01-10T05:09:15.176Z,21.60
2024-01-10T05:11:44.237Z,19.35
2024-01-10T05:14:12.375Z,20.67
2024-01-10T05:16:39.842Z,17.75
2024-01-10T05:19:07.241Z,15.93
2024-01-10T05:21:34.976Z,17.75
2024-01-10T05:24:02.240Z,16.35
2024-01-10T05:26:29.546Z,14.57
2024-01-10T05:28:56.813Z,14.05
2024-01-10T05:31:24.054Z,25.42
2024-01-10T05:33:51.405Z,18.90
2024-01-10T05:36:18.692Z,14.68
2024-01-10T05:38:45.921Z,19.80
2024-01-10T05:41:13.319Z,16.73
2024-01-10T05:43:40.895Z,20.95
2024-01-10T05:46:08.135Z,17.88
2024-01-10T05:48:35.447Z,22.73
2024-01-10T05:51:02.798Z,16.15
2024-01-10T05:53:30.319Z,16.65
2024-01-10T05:55:57.772Z,16.85
2024-01-10T05:58:25.038Z,19.88
2024-01-10T06:00:52.957Z,21.33
2024-01-10T06:03:20.368Z,27.48
2024-01-10T06:05:47.615Z,18.00
2024-01-10T06:08:15.433Z,17.27
2024-01-10T06:10:42.896Z,16.88
2024-01-10T06:13:10.220Z,19.90
2024-01-10T06:15:37.484Z,25.33
2024-01-10T06:18:04.934Z,21.60
2024-01-10T06:20:33.164Z,21.85
2024-01-10T06:23:00.610Z,19.77
2024-01-10T06:25:28.661Z,14.88
2024-01-10T06:27:56.143Z,17.98
2024-01-10T06:30:23.419Z,20.90
2024-01-10T06:32:50.693Z,21.50
2024-01-10T06:35:18.068Z,23.58
2024-01-10T06:37:45.630Z,23.20
2024-01-10T06:40:13.190Z,19.10
2024-01-10T06:42:40.548Z,27.25
2024-01-10T06:45:09.403Z,26.67
2024-01-10T06:47:36.936Z,20.90
2024-01-10T06:50:06.618Z,19.08
2024-01-10T06:52:33.968Z,21.55
2024-01-10T06:55:01.224Z,22.80
2024-01-10T06:57:28.555Z,25.02
2024-01-10T06:59:55.811Z,19.55
2024-01-10T07:02:24.329Z,25.75
2024-01-10T07:04:51.841Z,23.42
2024-01-10T07:07:19.095Z,17.80
2024-01-10T07:09:46.618Z,20.88
2024-01-10T07:12:13.908Z,23.50
2024-01-10T07:14:41.203Z,23.40
2024-01-10T07:17:08.653Z,20.77
2024-01-10T07:19:36.012Z,20.95
2024-01-10T07:22:03.344Z,19.58
2024-01-10T07:24:30.639Z,25.95
2024-01-10T07:26:58.243Z,16.63
2024-01-10T07:29:25.545Z,26.88
2024-01-10T07:31:53.999Z,34.60
2024-01-10T07:34:22.489Z,17.77
2024-01-10T07:36:49.789Z,28.58
2024-01-10T07:39:19.161Z,26.63
2024-01-10T07:41:46.756Z,22.45
2024-01-10T07:44:14.173Z,22.75
2024-01-10T07:46:41.597Z,24.55
2024-01-10T07:49:08.983Z,23.60
2024-01-10T07:51:37.261Z,25.98
2024-01-10T07:54:04.660Z,28.70
2024-01-10T07:56:31.904Z,23.67
2024-01-10T07:58:59.194Z,22.90
2024-01-10T08:01:27.106Z,20.33
2024-01-10T08:03:54.365Z,22.05
2024-01-10T08:06:27.287Z,25.60
2024-01-10T08:08:59.901Z,25.02
2024-01-10T08:11:27.448Z,24.27
2024-01-10T08:13:54.871Z,26.25
2024-01-10T08:16:22.466Z,22.40
2024-01-10T08:18:49.951Z,21.85
2024-01-10T08:21:17.303Z,23.70
2024-01-10T08:23:44.560Z,29.45
2024-01-10T08:26:12.708Z,31.05
2024-01-10T08:28:40.209Z,23.10
2024-01-10T08:31:08.484Z,26.75
2024-01-10T08:33:35.893Z,22.75
2024-01-10T08:36:03.744Z,32.80
2024-01-10T08:38:31.157Z,25.33
2024-01-10T08:40:58.682Z,32.08
2024-01-10T08:43:25.958Z,44.55
2024-01-10T08:45:53.381Z,32.92
2024-01-10T08:48:20.754Z,28.55
2024-01-10T08:50:48.143Z,25.60
2024-01-10T08:53:15.390Z,32.75
2024-01-10T08:55:42.972Z,26.98
2024-01-10T08:58:10.459Z,30.63
2024-01-10T09:00:37.906Z,34.03
2024-01-10T09:03:05.898Z,21.67
2024-01-10T09:05:33.818Z,25.52
2024-01-10T09:08:01.401Z,33.70
2024-01-10T09:10:29.319Z,37.63
2024-01-10T09:12:59.326Z,31.73
2024-01-10T09:15:26.720Z,26.27
2024-01-10T09:17:54.102Z,31.83
2024-01-10T09:20:21.703Z,22.63
2024-01-10T09:22:50.211Z,29.65
2024-01-10T09:25:18.432Z,25.75
2024-01-10T09:27:46.313Z,29.92
2024-01-10T09:30:14.398Z,23.15
2024-01-10T09:32:41.858Z,22.63
2024-01-10T09:35:10.026Z,32.45
2024-01-10T09:37:37.563Z,33.17
2024-01-10T09:40:07.197Z,30.00
2024-01-10T09:42:37.989Z,25.95
2024-01-10T09:45:06.292Z,24.05
2024-01-10T09:47:36.658Z,20.35
2024-01-10T09:50:05.251Z,20.17
2024-01-10T09:52:40.286Z,14.68
2024-01-10T09:55:09.483Z,10.18
2024-01-10T09:57:37.693Z,14.13
2024-01-10T10:00:11.702Z,7.97
2024-01-10T10:02:40.874Z,11.95
2024-01-10T10:05:27.492Z,8.93
2024-01-10T10:07:55.167Z,10.40
2024-01-10T10:10:22.787Z,10.07
2024-01-10T10:12:54.984Z,9.85
2024-01-10T10:15:24.070Z,12.50
2024-01-10T10:17:54.643Z,10.57
2024-01-10T10:20:26.970Z,12.23
2024-01-10T10:23:05.531Z,10.32
2024-01-10T10:25:35.143Z,14.10
2024-01-10T10:28:04.162Z,10.05
2024-01-10T10:30:35.569Z,9.00
2024-01-10T10:33:04.324Z,16.85
2024-01-10T10:35:38.961Z,10.80
2024-01-10T10:38:12.304Z,8.80
2024-01-10T10:40:40.223Z,9.82
2024-01-10T10:43:15.240Z,14.38
2024-01-10T10:45:49.375Z,9.27
2024-01-10T10:48:20.636Z,12.20
2024-01-10T10:51:11.718Z,11.57
2024-01-10T10:53:41.600Z,13.57
2024-01-10T10:56:09.410Z,14.57
2024-01-10T10:58:40.548Z,16.70
2024-01-10T11:01:10.163Z,12.32
2024-01-10T11:03:39.218Z,9.70
2024-01-10T11:06:07.701Z,13.07
2024-01-10T11:08:50.581Z,10.57
2024-01-10T11:11:55.355Z,10.73
2024-01-10T11:14:31.463Z,11.68
2024-01-10T11:17:36.134Z,17.02
2024-01-10T11:20:34.709Z,15.57
2024-01-10T11:23:20.670Z,11.45
2024-01-10T11:25:48.020Z,13.48
2024-01-10T11:28:15.547Z,15.38
2024-01-10T11:31:01.094Z,10.90
2024-01-10T11:33:41.986Z,9.95
2024-01-10T11:36:13.601Z,11.73
2024-01-10T11:38:49.165Z,10.15
2024-01-10T11:41:24.189Z,12.73
2024-01-10T11:44:13.769Z,15.55
2024-01-10T11:46:42.635Z,16.63
2024-01-10T11:49:16.753Z,9.60
2024-01-10T11:51:47.958Z,8.75
2024-01-10T11:54:34.130Z,10.18
2024-01-10T11:57:02.523Z,8.88
2024-01-10T11:59:31.729Z,9.43
2024-01-10T12:01:59.902Z,10.45
2024-01-10T12:04:41.280Z,7.10
2024-01-10T12:07:14.592Z,9.05
2024-01-10T12:09:42.991Z,6.45
2024-01-10T12:12:12.409Z,5.75
2024-01-10T12:14:41.056Z,7.75
2024-01-10T12:17:09.430Z,6.57
2024-01-10T12:19:40.701Z,8.88
2024-01-10T12:24:46.305Z,8.15
2024-01-10T12:27:13.920Z,8.95
2024-01-10T12:29:41.317Z,8.73
2024-01-10T12:32:10.308Z,9.57
2024-01-10T12:34:41.371Z,9.80
2024-01-10T12:39:39.118Z,9.38
2024-01-10T12:42:06.503Z,7.85
2024-01-10T12:44:35.129Z,10.35
2024-01-10T12:47:03.752Z,8.77
2024-01-10T12:49:31.164Z,7.32
2024-01-10T12:51:58.893Z,5.85
2024-01-10T12:54:26.310Z,7.75
2024-01-10T12:56:53.646Z,9.95
2024-01-10T12:59:21.021Z,5.68
2024-01-10T13:01:48.428Z,10.07
2024-01-10T13:04:16.016Z,15.05
2024-01-10T13:06:43.297Z,9.13
2024-01-10T13:09:10.858Z,7.22
2024-01-10T13:11:38.470Z,17.48
2024-01-10T13:14:05.886Z,10.35
2024-01-10T13:16:42.589Z,8.52
2024-01-10T13:19:16.668Z,9.07
2024-01-10T13:21:43.986Z,6.50
2024-01-10T13:24:11.233Z,6.13
2024-01-10T13:26:38.632Z,11.23
2024-01-10T13:29:06.017Z,8.25
2024-01-10T13:31:33.257Z,7.20
2024-01-10T13:34:00.612Z,7.53
2024-01-10T13:36:27.889Z,9.45
2024-01-10T13:38:55.185Z,12.02
2024-01-10T13:41:22.419Z,10.57
2024-01-10T13:43:49.701Z,8.88
2024-01-10T13:46:18.028Z,8.88
2024-01-10T13:48:45.355Z,9.18
2024-01-10T13:51:12.700Z,9.02
2024-01-10T13:53:39.978Z,9.02
2024-01-10T13:56:07.724Z,9.15
2024-01-10T13:58:35.154Z,9.48
2024-01-10T14:01:02.629Z,12.70
2024-01-10T14:03:33.496Z,12.93
2024-01-10T14:06:01.892Z,7.63
2024-01-10T14:08:30.776Z,9.52
2024-01-10T14:10:58.124Z,13.25
2024-01-10T14:13:25.392Z,7.53
2024-01-10T14:15:52.586Z,14.07
2024-01-10T14:18:19.928Z,12.23
2024-01-10T14:20:47.280Z,10.57
2024-01-10T14:23:15.200Z,11.85
2024-01-10T14:25:42.459Z,8.60
2024-01-10T14:28:09.698Z,8.45
2024-01-10T14:30:37.009Z,16.67
2024-01-10T14:33:05.266Z,11.23
2024-01-10T14:35:32.942Z,10.00
2024-01-10T14:38:00.467Z,15.02
2024-01-10T14:40:27.741Z,8.65
2024-01-10T14:42:54.944Z,9.93
2024-01-10T14:45:22.182Z,12.23
2024-01-10T14:47:50.788Z,9.32
2024-01-10T14:52:45.462Z,9.23
2024-01-10T14:55:12.893Z,8.45
2024-01-10T14:57:40.137Z,9.45
2024-01-10T15:00:08.008Z,9.40
2024-01-10T15:02:37.233Z,9.32
2024-01-10T15:05:06.397Z,10.68
2024-01-10T15:07:33.698Z,7.82
2024-01-10T15:10:03.958Z,11.32
2024-01-10T15:12:32.066Z,11.85
2024-01-10T15:15:02.666Z,11.30
2024-01-10T15:17:30.225Z,14.90
2024-01-10T15:19:57.581Z,8.25
2024-01-10T15:22:24.876Z,11.45
2024-01-10T15:24:52.058Z,13.35
2024-01-10T15:27:19.756Z,13.45
2024-01-10T15:29:53.165Z,12.65
2024-01-10T15:32:24.228Z,11.32
2024-01-10T15:34:51.763Z,12.93
2024-01-10T15:37:19.028Z,10.90
2024-01-10T15:39:47.367Z,12.00
2024-01-10T15:42:14.814Z,12.30
2024-01-10T15:44:43.650Z,15.15
2024-01-10T15:47:11.204Z,16.20
2024-01-10T15:49:38.722Z,11.75
2024-01-10T15:52:06.106Z,13.90
2024-01-10T15:54:38.504Z,17.05
2024-01-10T15:57:06.062Z,8.25
2024-01-10T15:59:33.545Z,9.63
2024-01-10T16:02:00.777Z,9.52
2024-01-10T16:04:29.547Z,9.02
2024-01-10T16:06:56.899Z,10.32
2024-01-10T16:09:24.854Z,12.02
2024-01-10T16:11:52.193Z,12.27
2024-01-10T16:14:19.485Z,12.90
2024-01-10T16:16:46.805Z,11.15
2024-01-10T16:19:14.494Z,13.18
2024-01-10T16:21:41.899Z,8.07
2024-01-10T16:24:09.343Z,16.27
2024-01-10T16:26:37.434Z,15.02
2024-01-10T16:29:05.024Z,12.25
2024-01-10T16:31:32.941Z,12.65
2024-01-10T16:34:00.179Z,10.48
2024-01-10T16:36:27.487Z,14.88
2024-01-10T16:38:56.033Z,12.68
2024-01-10T16:41:23.381Z,9.93
2024-01-10T16:43:50.730Z,15.93
2024-01-10T16:46:18.000Z,15.57
2024-01-10T16:48:45.444Z,9.63
2024-01-10T16:51:12.785Z,16.88
2024-01-10T16:53:40.037Z,12.70
2024-01-10T16:56:08.547Z,14.65
2024-01-10T16:58:35.863Z,14.07
2024-01-10T17:01:03.245Z,19.90
2024-01-10T17:03:32.249Z,24.13
2024-01-10T17:06:00.348Z,24.13
2024-01-10T17:08:27.737Z,16.60
2024-01-10T17:10:55.070Z,30.20
2024-01-10T17:13:24.343Z,26.50
2024-01-10T17:15:51.758Z,26.75
2024-01-10T17:18:19.327Z,20.45
2024-01-10T17:20:46.725Z,21.48
2024-01-10T17:23:14.617Z,23.23
2024-01-10T17:25:41.912Z,20.70
2024-01-10T17:28:09.250Z,24.40
2024-01-10T17:30:36.552Z,28.63
2024-01-10T17:33:09.511Z,23.65
2024-01-10T17:35:37.627Z,17.95
2024-01-10T17:38:06.775Z,21.88
2024-01-10T17:40:34.214Z,22.05
2024-01-10T17:43:01.479Z,19.10
2024-01-10T17:45:28.722Z,26.45
2024-01-10T17:47:56.242Z,24.63
2024-01-10T17:50:25.318Z,31.08
2024-01-10T17:52:52.877Z,29.02
2024-01-10T17:55:20.199Z,22.40
2024-01-10T17:57:47.487Z,32.35
2024-01-10T18:00:15.472Z,18.45
2024-01-10T18:02:42.876Z,22.13
2024-01-10T18:05:10.558Z,21.60
2024-01-10T18:07:37.873Z,22.80
2024-01-10T18:10:05.664Z,22.92
2024-01-10T18:12:33.033Z,23.63
2024-01-10T18:15:01.141Z,18.95
2024-01-10T18:17:28.409Z,21.08
2024-01-10T18:19:55.693Z,20.92
2024-01-10T18:22:22.967Z,22.92
2024-01-10T18:24:50.201Z,27.35
2024-01-10T18:27:17.627Z,22.13
2024-01-10T18:29:45.008Z,18.80
2024-01-10T18:32:12.665Z,29.13
2024-01-10T18:34:39.957Z,21.50
2024-01-10T18:37:07.309Z,20.15
2024-01-10T18:39:35.003Z,21.63
2024-01-10T18:42:02.455Z,22.30
2024-01-10T18:44:29.912Z,25.48
2024-01-10T18:46:57.307Z,22.85
2024-01-10T18:49:24.583Z,19.08
2024-01-10T18:51:52.090Z,21.95
2024-01-10T18:54:19.392Z,25.95
2024-01-10T18:56:46.910Z,24.20
2024-01-10T18:59:14.229Z,34.47
2024-01-10T19:01:44.183Z,29.17
2024-01-10T19:04:11.697Z,26.33
2024-01-10T19:06:39.258Z,23.75
2024-01-10T19:09:07.136Z,27.85
2024-01-10T19:11:34.654Z,42.38
2024-01-10T19:14:02.046Z,30.00
2024-01-10T19:16:29.390Z,28.20
2024-01-10T19:18:56.677Z,29.33
2024-01-10T19:21:24.031Z,29.25
2024-01-10T19:23:51.321Z,32.42
2024-01-10T19:26:25.823Z,28.17
2024-01-10T19:28:53.438Z,31.67
2024-01-10T19:31:21.069Z,30.80
2024-01-10T19:33:49.766Z,27.80
2024-01-10T19:36:17.942Z,34.35
2024-01-10T19:38:45.982Z,41.30
2024-01-10T19:41:24.081Z,33.72
2024-01-10T19:43:52.256Z,29.00
2024-01-10T19:46:20.457Z,40.00
2024-01-10T19:48:48.626Z,37.33
2024-01-10T19:51:17.028Z,34.70
2024-01-10T19:53:49.330Z,29.30
2024-01-10T19:56:17.500Z,35.70
2024-01-10T19:58:45.509Z,29.77
2024-01-10T20:01:13.293Z,22.48
2024-01-10T20:03:40.865Z,42.13
2024-01-10T20:06:09.079Z,31.67
2024-01-10T20:08:36.565Z,26.70
2024-01-10T20:11:04.003Z,32.60
2024-01-10T20:13:31.338Z,26.52
2024-01-10T20:15:58.622Z,33.15
2024-01-10T20:18:26.122Z,27.80
2024-01-10T20:20:53.500Z,27.23
2024-01-10T20:23:20.933Z,26.23
2024-01-10T20:25:49.040Z,32.17
2024-01-10T20:28:19.084Z,36.78
2024-01-10T20:30:47.125Z,33.23
2024-01-10T20:33:14.630Z,31.88
2024-01-10T20:35:42.396Z,23.02
2024-01-10T20:38:09.850Z,34.00
2024-01-10T20:40:37.206Z,32.75
2024-01-10T20:43:04.785Z,33.25
2024-01-10T20:45:32.056Z,34.75
2024-01-10T20:47:59.385Z,30.40
2024-01-10T20:50:26.798Z,22.25
2024-01-10T20:52:54.119Z,31.48
2024-01-10T20:55:21.402Z,30.60
2024-01-10T20:57:48.782Z,25.23
2024-01-10T21:00:16.405Z,28.38
2024-01-10T21:02:43.757Z,34.95
2024-01-10T21:05:11.132Z,30.42
2024-01-10T21:07:38.490Z,28.23
2024-01-10T21:10:06.046Z,38.47
2024-01-10T21:12:33.678Z,35.70
2024-01-10T21:15:00.969Z,30.65
2024-01-10T21:17:28.583Z,38.58
2024-01-10T21:19:58.746Z,28.70
2024-01-10T21:22:28.223Z,31.88
2024-01-10T21:24:56.205Z,35.80
2024-01-10T21:27:26.475Z,29.80
2024-01-10T21:29:53.830Z,34.05
2024-01-10T21:32:21.201Z,30.15
2024-01-10T21:34:49.140Z,30.13
2024-01-10T21:37:16.554Z,31.98
2024-01-10T21:39:43.992Z,33.25
2024-01-10T21:42:11.257Z,30.00
2024-01-10T21:44:38.563Z,44.97
2024-01-10T21:47:07.520Z,47.38
2024-01-10T21:49:35.069Z,37.70
2024-01-10T21:52:02.486Z,40.25
2024-01-10T21:54:29.848Z,33.38
2024-01-10T21:56:57.219Z,37.33
2024-01-10T21:59:24.822Z,32.35
2024-01-10T22:01:52.193Z,30.80
2024-01-10T22:04:19.816Z,37.10
2024-01-10T22:06:47.756Z,38.50
2024-01-10T22:09:15.253Z,34.22
2024-01-10T22:11:43.362Z,34.42
2024-01-10T22:14:13.107Z,34.58
2024-01-10T22:16:40.655Z,36.85
2024-01-10T22:19:07.952Z,31.85
2024-01-10T22:21:35.309Z,38.78
2024-01-10T22:24:02.756Z,42.67
2024-01-10T22:26:30.078Z,35.40
2024-01-10T22:28:57.388Z,37.53
2024-01-10T22:31:24.681Z,33.08
2024-01-10T22:33:52.078Z,39.17
2024-01-10T22:36:19.408Z,35.05
2024-01-10T22:38:46.856Z,46.05
2024-01-10T22:41:15.158Z,36.55
2024-01-10T22:43:42.539Z,32.88
2024-01-10T22:46:09.852Z,36.17
2024-01-10T22:48:37.523Z,36.10
2024-01-10T22:51:05.021Z,37.33
2024-01-10T22:53:32.421Z,48.25
2024-01-10T22:56:00.478Z,37.95
2024-01-10T22:58:29.776Z,30.65
2024-01-10T23:01:00.258Z,31.17
2024-01-10T23:03:32.036Z,32.80
2024-01-10T23:05:59.811Z,33.55
2024-01-10T23:08:27.230Z,25.75
2024-01-10T23:10:54.517Z,35.75
2024-01-10T23:13:21.802Z,46.58
2024-01-10T23:15:49.093Z,43.95
2024-01-10T23:18:18.583Z,29.20
2024-01-10T23:20:45.989Z,27.50
2024-01-10T23:23:13.759Z,31.42
2024-01-10T23:25:41.481Z,28.90
2024-01-10T23:28:08.783Z,31.52
2024-01-10T23:30:36.216Z,37.55
2024-01-10T23:33:04.180Z,33.90
2024-01-10T23:35:40.440Z,36.22
2024-01-10T23:38:15.035Z,38.95
2024-01-10T23:40:42.373Z,44.72
2024-01-10T23:43:15.888Z,37.38
2024-01-10T23:45:52.167Z,31.05
2024-01-10T23:48:19.496Z,34.50
2024-01-10T23:50:46.962Z,36.10
2024-01-10T23:53:14.720Z,34.08
2024-01-10T23:55:42.444Z,33.83
2024-01-10T23:58:10.852Z,30.95
